createdAt,value
2022-11-17T00:00:42.772Z,5.68
2022-11-17T00:01:42.874Z,5.84
2022-11-17T00:02:43.066Z,5.92
2022-11-17T00:03:43.193Z,5.84
2022-11-17T00:04:43.340Z,5.84
2022-11-17T00:05:43.449Z,5.68
2022-11-17T00:06:43.591Z,5.68
2022-11-17T00:07:43.693Z,5.6
2022-11-17T00:08:43.851Z,5.6
2022-11-17T00:09:44.006Z,5.6
2022-11-17T00:10:44.155Z,5.6
2022-11-17T00:11:44.311Z,5.6
2022-11-17T00:12:44.453Z,5.6
2022-11-17T00:13:44.617Z,5.6
2022-11-17T00:14:44.763Z,5.52
2022-11-17T00:15:44.893Z,5.52
2022-11-17T00:16:45.022Z,5.6
2022-11-17T00:17:45.189Z,5.52
2022-11-17T00:18:45.319Z,5.52
2022-11-17T00:19:45.415Z,5.52
2022-11-17T00:20:45.562Z,5.52
2022-11-17T00:21:45.711Z,5.6
2022-11-17T00:22:45.854Z,5.6
2022-11-17T00:23:46.015Z,5.52
2022-11-17T00:24:46.167Z,5.52
2022-11-17T00:25:46.287Z,5.6
2022-11-17T00:26:46.437Z,5.6
2022-11-17T00:27:46.581Z,5.84
2022-11-17T00:28:46.688Z,5.68
2022-11-17T00:29:46.831Z,5.6
2022-11-17T00:30:52.024Z,5.68
2022-11-17T00:31:47.033Z,6
2022-11-17T00:32:47.190Z,5.6
2022-11-17T00:33:47.352Z,5.68
2022-11-17T00:34:47.493Z,5.68
2022-11-17T00:35:47.642Z,5.52
2022-11-17T00:36:47.744Z,5.52
2022-11-17T00:37:47.895Z,5.6
2022-11-17T00:38:48.005Z,5.52
2022-11-17T00:39:48.131Z,5.6
2022-11-17T00:40:48.255Z,5.6
2022-11-17T00:41:48.369Z,5.52
2022-11-17T00:42:48.488Z,5.6
2022-11-17T00:43:48.603Z,5.6
2022-11-17T00:44:48.758Z,5.6
2022-11-17T00:45:48.889Z,5.6
2022-11-17T00:46:49.070Z,5.52
2022-11-17T00:47:49.221Z,5.6
2022-11-17T00:48:50.180Z,5.52
2022-11-17T00:49:49.953Z,5.6
2022-11-17T00:50:50.010Z,5.52
2022-11-17T00:51:50.385Z,5.52
2022-11-17T00:52:50.303Z,5.52
2022-11-17T00:53:50.439Z,5.6
2022-11-17T00:54:50.602Z,5.6
2022-11-17T00:55:50.808Z,5.68
2022-11-17T00:56:50.922Z,5.68
2022-11-17T00:57:51.066Z,5.84
2022-11-17T00:58:51.270Z,5.6
2022-11-17T00:59:51.379Z,5.6
2022-11-17T01:00:51.123Z,5.6
2022-11-17T01:01:51.322Z,5.6
2022-11-17T01:02:51.438Z,5.52
2022-11-17T01:03:51.592Z,5.52
2022-11-17T01:04:51.745Z,5.52
2022-11-17T01:05:51.903Z,5.52
2022-11-17T01:06:52.066Z,5.52
2022-11-17T01:07:52.196Z,5.44
2022-11-17T01:08:52.343Z,5.52
2022-11-17T01:09:52.499Z,5.52
2022-11-17T01:10:52.650Z,5.52
2022-11-17T01:11:52.796Z,5.44
2022-11-17T01:12:52.947Z,5.44
2022-11-17T01:13:53.099Z,5.52
2022-11-17T01:14:53.250Z,5.52
2022-11-17T01:15:53.388Z,5.6
2022-11-17T01:16:53.574Z,5.52
2022-11-17T01:17:53.663Z,5.52
2022-11-17T01:18:53.818Z,5.44
2022-11-17T01:19:53.981Z,5.44
2022-11-17T01:20:54.111Z,5.44
2022-11-17T01:21:54.264Z,5.28
2022-11-17T01:22:54.424Z,5.28
2022-11-17T01:23:54.561Z,5.44
2022-11-17T01:24:54.716Z,5.52
2022-11-17T01:25:54.869Z,5.52
2022-11-17T01:26:55.022Z,5.52
2022-11-17T01:27:55.177Z,5.52
2022-11-17T01:28:55.330Z,5.52
2022-11-17T01:29:55.469Z,5.52
2022-11-17T01:30:55.565Z,5.52
2022-11-17T01:31:55.743Z,5.52
2022-11-17T01:32:56.319Z,5.52
2022-11-17T01:33:56.018Z,5.44
2022-11-17T01:34:56.571Z,5.44
2022-11-17T01:35:56.682Z,5.44
2022-11-17T01:36:56.782Z,5.44
2022-11-17T01:37:56.575Z,5.52
2022-11-17T01:38:56.678Z,5.28
2022-11-17T01:39:56.843Z,5.44
2022-11-17T01:40:56.941Z,5.44
2022-11-17T01:41:57.035Z,5.44
2022-11-17T01:42:57.223Z,5.28
2022-11-17T01:43:57.356Z,5.44
2022-11-17T01:44:57.499Z,5.28
2022-11-17T01:45:57.596Z,5.44
2022-11-17T01:47:00.828Z,5.28
2022-11-17T01:47:57.905Z,5.44
2022-11-17T01:48:58.058Z,5.44
2022-11-17T01:49:58.202Z,5.52
2022-11-17T01:50:58.362Z,5.52
2022-11-17T01:51:58.509Z,5.52
2022-11-17T01:52:58.635Z,5.44
2022-11-17T01:53:58.776Z,5.52
2022-11-17T01:54:58.911Z,5.44
2022-11-17T01:55:59.071Z,5.44
2022-11-17T01:56:59.223Z,5.44
2022-11-17T01:57:59.373Z,5.52
2022-11-17T01:58:59.528Z,5.52
2022-11-17T01:59:59.681Z,5.52
2022-11-17T02:00:59.809Z,5.44
2022-11-17T02:01:59.940Z,5.44
2022-11-17T02:03:00.099Z,5.28
2022-11-17T02:04:00.234Z,5.44
2022-11-17T02:05:00.387Z,5.44
2022-11-17T02:06:00.527Z,5.44
2022-11-17T02:07:00.763Z,5.28
2022-11-17T02:08:00.841Z,5.44
2022-11-17T02:09:00.998Z,5.28
2022-11-17T02:10:01.143Z,5.28
2022-11-17T02:11:01.368Z,5.44
2022-11-17T02:12:01.435Z,5.28
2022-11-17T02:13:01.630Z,5.44
2022-11-17T02:14:01.747Z,5.44
2022-11-17T02:15:01.894Z,5.28
2022-11-17T02:16:02.033Z,5.28
2022-11-17T02:17:09.055Z,5.44
2022-11-17T02:18:02.346Z,5.44
2022-11-17T02:19:02.522Z,5.28
2022-11-17T02:20:02.659Z,5.44
2022-11-17T02:21:02.795Z,5.44
2022-11-17T02:22:02.902Z,5.52
2022-11-17T02:23:03.079Z,5.28
2022-11-17T02:24:03.220Z,5.28
2022-11-17T02:25:03.370Z,5.28
2022-11-17T02:26:03.527Z,5.44
2022-11-17T02:27:03.655Z,5.28
2022-11-17T02:28:03.865Z,5.52
2022-11-17T02:29:04.030Z,5.52
2022-11-17T02:30:04.174Z,5.52
2022-11-17T02:31:04.305Z,5.52
2022-11-17T02:32:04.411Z,5.44
2022-11-17T02:33:04.569Z,5.52
2022-11-17T02:34:04.675Z,5.44
2022-11-17T02:35:04.841Z,5.52
2022-11-17T02:36:04.979Z,5.44
2022-11-17T02:37:05.129Z,5.44
2022-11-17T02:38:05.285Z,5.52
2022-11-17T02:39:05.435Z,5.44
2022-11-17T02:40:05.537Z,5.44
2022-11-17T02:41:05.698Z,5.52
2022-11-17T02:42:05.849Z,5.52
2022-11-17T02:43:05.997Z,5.52
2022-11-17T02:44:06.145Z,5.52
2022-11-17T02:45:06.303Z,5.52
2022-11-17T02:46:06.430Z,5.84
2022-11-17T02:47:06.540Z,5.52
2022-11-17T02:48:06.707Z,5.52
2022-11-17T02:49:06.851Z,5.52
2022-11-17T02:50:07.010Z,5.6
2022-11-17T02:51:07.148Z,5.6
2022-11-17T02:52:07.301Z,5.68
2022-11-17T02:53:07.465Z,5.6
2022-11-17T02:54:07.542Z,5.6
2022-11-17T02:55:07.706Z,5.52
2022-11-17T02:56:07.863Z,5.52
2022-11-17T02:57:08.012Z,5.52
2022-11-17T02:58:08.174Z,5.52
2022-11-17T02:59:08.333Z,5.52
2022-11-17T03:00:08.473Z,5.52
2022-11-17T03:01:08.633Z,5.68
2022-11-17T03:02:08.733Z,5.52
2022-11-17T03:03:08.860Z,5.6
2022-11-17T03:04:09.023Z,5.68
2022-11-17T03:05:09.247Z,5.6
2022-11-17T03:06:09.335Z,5.6
2022-11-17T03:07:09.466Z,5.6
2022-11-17T03:08:09.586Z,5.52
2022-11-17T03:09:09.727Z,5.52
2022-11-17T03:10:09.840Z,5.52
2022-11-17T03:11:09.983Z,5.68
2022-11-17T03:12:10.141Z,5.6
2022-11-17T03:13:10.286Z,5.52
2022-11-17T03:14:10.397Z,5.6
2022-11-17T03:15:10.543Z,5.52
2022-11-17T03:16:10.684Z,5.6
2022-11-17T03:17:10.901Z,5.52
2022-11-17T03:18:11.061Z,5.52
2022-11-17T03:19:11.190Z,5.44
2022-11-17T03:20:11.283Z,5.28
2022-11-17T03:21:11.452Z,5.28
2022-11-17T03:22:11.600Z,5.28
2022-11-17T03:23:11.784Z,5.28
2022-11-17T03:24:11.877Z,5.28
2022-11-17T03:25:11.974Z,5.2
2022-11-17T03:26:12.101Z,5.28
2022-11-17T03:27:12.262Z,5.44
2022-11-17T03:28:12.403Z,5.28
2022-11-17T03:29:12.522Z,5.44
2022-11-17T03:30:12.667Z,5.28
2022-11-17T03:31:12.806Z,5.2
2022-11-17T03:32:12.982Z,5.2
2022-11-17T03:33:13.125Z,5.2
2022-11-17T03:34:13.227Z,5.12
2022-11-17T03:35:13.383Z,5.28
2022-11-17T03:36:13.525Z,5.28
2022-11-17T03:37:13.637Z,5.12
2022-11-17T03:38:13.773Z,5.12
2022-11-17T03:39:13.884Z,5.04
2022-11-17T03:40:14.033Z,5.04
2022-11-17T03:41:14.128Z,5.12
2022-11-17T03:42:14.285Z,5.12
2022-11-17T03:43:14.485Z,5.04
2022-11-17T03:44:14.646Z,5.12
2022-11-17T03:45:14.806Z,5.12
2022-11-17T03:46:14.922Z,5.04
2022-11-17T03:47:15.093Z,5.04
2022-11-17T03:48:15.237Z,5.04
2022-11-17T03:49:15.413Z,5.04
2022-11-17T03:50:15.552Z,5.12
2022-11-17T03:51:15.698Z,5.12
2022-11-17T03:52:15.882Z,5.2
2022-11-17T03:53:15.995Z,5.2
2022-11-17T03:54:16.157Z,5.2
2022-11-17T03:55:16.303Z,5.12
2022-11-17T03:56:16.457Z,5.12
2022-11-17T03:57:16.604Z,5.12
2022-11-17T03:58:16.724Z,5.12
2022-11-17T03:59:16.845Z,5.12
2022-11-17T04:00:17.008Z,5.12
2022-11-17T04:01:17.193Z,5.2
2022-11-17T04:02:17.266Z,5.2
2022-11-17T04:03:17.443Z,5.2
2022-11-17T04:04:17.566Z,5.2
2022-11-17T04:05:17.726Z,5.12
2022-11-17T04:06:17.883Z,5.12
2022-11-17T04:07:18.096Z,5.12
2022-11-17T04:08:18.180Z,5.12
2022-11-17T04:09:23.005Z,5.12
2022-11-17T04:10:18.483Z,5.12
2022-11-17T04:11:18.587Z,5.12
2022-11-17T04:12:18.737Z,5.12
2022-11-17T04:13:18.883Z,5.12
2022-11-17T04:14:19.028Z,5.2
2022-11-17T04:15:19.191Z,5.2
2022-11-17T04:16:19.320Z,5.2
2022-11-17T04:17:19.492Z,5.28
2022-11-17T04:18:19.637Z,5.2
2022-11-17T04:19:19.791Z,5.2
2022-11-17T04:20:19.942Z,5.12
2022-11-17T04:21:20.095Z,5.12
2022-11-17T04:22:20.255Z,5.12
2022-11-17T04:23:20.336Z,5.12
2022-11-17T04:24:20.501Z,5.2
2022-11-17T04:25:20.653Z,5.2
2022-11-17T04:26:20.831Z,5.2
2022-11-17T04:27:20.965Z,5.12
2022-11-17T04:28:21.107Z,5.12
2022-11-17T04:29:21.260Z,5.12
2022-11-17T04:30:21.418Z,5.12
2022-11-17T04:31:21.544Z,5.12
2022-11-17T04:32:21.728Z,5.2
2022-11-17T04:33:21.868Z,5.2
2022-11-17T04:34:21.968Z,5.12
2022-11-17T04:35:22.123Z,5.12
2022-11-17T04:36:22.275Z,5.2
2022-11-17T04:37:22.419Z,5.2
2022-11-17T04:38:22.582Z,5.2
2022-11-17T04:39:22.734Z,5.12
2022-11-17T04:40:22.885Z,5.12
2022-11-17T04:41:23.030Z,5.12
2022-11-17T04:42:23.179Z,5.2
2022-11-17T04:43:23.335Z,5.2
2022-11-17T04:44:23.488Z,5.12
2022-11-17T04:45:23.628Z,5.12
2022-11-17T04:46:23.779Z,5.12
2022-11-17T04:47:23.937Z,5.04
2022-11-17T04:48:24.088Z,5.04
2022-11-17T04:49:24.239Z,5.2
2022-11-17T04:50:24.390Z,5.28
2022-11-17T04:51:24.539Z,5.2
2022-11-17T04:52:29.541Z,5.12
2022-11-17T04:53:24.857Z,5.28
2022-11-17T04:54:25.003Z,5.2
2022-11-17T04:55:25.108Z,5.12
2022-11-17T04:56:25.253Z,5.2
2022-11-17T04:57:25.422Z,5.2
2022-11-17T04:58:25.557Z,5.12
2022-11-17T04:59:25.715Z,5.2
2022-11-17T05:00:25.815Z,5.28
2022-11-17T05:01:25.946Z,5.2
2022-11-17T05:02:26.156Z,5.2
2022-11-17T05:03:26.264Z,5.28
2022-11-17T05:04:26.422Z,5.6
2022-11-17T05:05:26.539Z,5.6
2022-11-17T05:06:26.651Z,5.44
2022-11-17T05:07:26.858Z,5.28
2022-11-17T05:08:26.974Z,5.28
2022-11-17T05:09:27.124Z,5.28
2022-11-17T05:10:27.277Z,5.44
2022-11-17T05:11:27.461Z,5.28
2022-11-17T05:12:27.582Z,5.44
2022-11-17T05:13:27.737Z,5.2
2022-11-17T05:14:27.889Z,5.12
2022-11-17T05:15:28.038Z,5.44
2022-11-17T05:16:28.166Z,5.44
2022-11-17T05:17:28.293Z,5.44
2022-11-17T05:18:28.423Z,5.28
2022-11-17T05:19:28.590Z,5.44
2022-11-17T05:20:28.741Z,5.28
2022-11-17T05:21:28.891Z,5.28
2022-11-17T05:22:28.995Z,5.2
2022-11-17T05:23:29.144Z,5.2
2022-11-17T05:24:29.302Z,5.28
2022-11-17T05:25:29.453Z,5.28
2022-11-17T05:26:29.560Z,5.28
2022-11-17T05:27:29.708Z,5.2
2022-11-17T05:28:29.854Z,5.28
2022-11-17T05:29:30.013Z,5.44
2022-11-17T05:30:30.189Z,5.2
2022-11-17T05:31:30.341Z,5.12
2022-11-17T05:32:30.505Z,5.12
2022-11-17T05:33:34.985Z,5.2
2022-11-17T05:34:30.772Z,5.2
2022-11-17T05:35:30.920Z,5.12
2022-11-17T05:36:31.073Z,5.2
2022-11-17T05:37:31.230Z,5.12
2022-11-17T05:38:31.332Z,5.2
2022-11-17T05:39:31.456Z,5.12
2022-11-17T05:40:31.625Z,5.04
2022-11-17T05:41:31.707Z,5.12
2022-11-17T05:42:31.873Z,5.04
2022-11-17T05:43:32.116Z,4.88
2022-11-17T05:44:32.167Z,4.88
2022-11-17T05:45:32.497Z,4.72
2022-11-17T05:46:32.572Z,4.8
2022-11-17T05:47:32.689Z,4.8
2022-11-17T05:48:32.837Z,4.8
2022-11-17T05:49:32.994Z,4.88
2022-11-17T05:50:33.147Z,4.88
2022-11-17T05:51:33.287Z,4.88
2022-11-17T05:52:33.449Z,4.8
2022-11-17T05:53:33.790Z,4.88
2022-11-17T05:54:33.742Z,4.8
2022-11-17T05:55:33.894Z,4.72
2022-11-17T05:56:34.044Z,4.64
2022-11-17T05:57:34.197Z,4.64
2022-11-17T05:58:34.355Z,4.48
2022-11-17T05:59:34.499Z,4.64
2022-11-17T06:00:34.593Z,4.64
2022-11-17T06:01:34.749Z,4.72
2022-11-17T06:02:34.911Z,4.64
2022-11-17T06:03:35.357Z,4.48
2022-11-17T06:04:35.218Z,4.64
2022-11-17T06:05:35.679Z,4.72
2022-11-17T06:06:35.833Z,4.64
2022-11-17T06:07:36.073Z,4.64
2022-11-17T06:08:36.148Z,4.48
2022-11-17T06:09:36.300Z,4.48
2022-11-17T06:10:36.456Z,4.64
2022-11-17T06:11:36.593Z,4.48
2022-11-17T06:12:36.364Z,4.4
2022-11-17T06:13:37.208Z,4.4
2022-11-17T06:14:36.842Z,4.4
2022-11-17T06:15:36.815Z,4.4
2022-11-17T06:16:36.964Z,4.48
2022-11-17T06:17:37.067Z,4.72
2022-11-17T06:18:37.167Z,4.64
2022-11-17T06:19:37.266Z,4.72
2022-11-17T06:20:37.432Z,4.64
2022-11-17T06:21:49.646Z,4.64
2022-11-17T06:22:37.723Z,4.72
2022-11-17T06:23:38.309Z,4.8
2022-11-17T06:24:37.974Z,4.72
2022-11-17T06:25:38.076Z,4.64
2022-11-17T06:26:38.175Z,4.88
2022-11-17T06:27:38.330Z,5.04
2022-11-17T06:28:38.488Z,5.12
2022-11-17T06:29:43.803Z,4.88
2022-11-17T06:30:38.733Z,4.72
2022-11-17T06:31:38.837Z,4.64
2022-11-17T06:32:38.990Z,4.64
2022-11-17T06:33:39.145Z,4.72
2022-11-17T06:34:39.296Z,4.72
2022-11-17T06:35:39.442Z,4.48
2022-11-17T06:36:39.549Z,4.64
2022-11-17T06:37:39.646Z,4.72
2022-11-17T06:38:39.799Z,4.72
2022-11-17T06:39:39.904Z,4.72
2022-11-17T06:40:40.052Z,4.72
2022-11-17T06:41:40.151Z,4.64
2022-11-17T06:42:40.309Z,4.64
2022-11-17T06:43:40.409Z,4.48
2022-11-17T06:44:40.789Z,4.64
2022-11-17T06:45:40.660Z,4.48
2022-11-17T06:46:44.880Z,4.48
2022-11-17T06:47:40.928Z,4.64
2022-11-17T06:48:41.067Z,4.48
2022-11-17T06:49:41.218Z,4.48
2022-11-17T06:50:41.316Z,4.48
2022-11-17T06:51:45.080Z,4.64
2022-11-17T06:52:41.624Z,4.88
2022-11-17T06:53:41.774Z,4.72
2022-11-17T06:54:41.884Z,4.72
2022-11-17T06:55:42.030Z,4.48
2022-11-17T06:56:42.205Z,4.48
2022-11-17T06:57:42.305Z,4.64
2022-11-17T06:58:42.384Z,4.64
2022-11-17T06:59:42.485Z,4.64
2022-11-17T07:00:42.661Z,4.64
2022-11-17T07:01:42.746Z,4.72
2022-11-17T07:02:42.921Z,4.8
2022-11-17T07:03:42.993Z,4.8
2022-11-17T07:04:43.093Z,4.72
2022-11-17T07:05:43.193Z,4.72
2022-11-17T07:06:43.295Z,4.72
2022-11-17T07:07:43.443Z,4.72
2022-11-17T07:08:43.573Z,4.72
2022-11-17T07:09:43.649Z,4.72
2022-11-17T07:10:49.089Z,4.72
2022-11-17T07:11:43.896Z,4.8
2022-11-17T07:12:44.050Z,4.8
2022-11-17T07:13:44.202Z,5.04
2022-11-17T07:14:44.362Z,5.2
2022-11-17T07:15:44.413Z,5.12
2022-11-17T07:16:44.569Z,5.28
2022-11-17T07:17:44.889Z,5.28
2022-11-17T07:18:44.866Z,5.12
2022-11-17T07:19:45.442Z,5.04
2022-11-17T07:20:45.116Z,5.04
2022-11-17T07:21:45.440Z,5.04
2022-11-17T07:22:45.391Z,5.04
2022-11-17T07:23:45.525Z,5.12
2022-11-17T07:24:45.623Z,5.04
2022-11-17T07:25:45.773Z,5.12
2022-11-17T07:26:45.921Z,5.28
2022-11-17T07:27:46.026Z,5.28
2022-11-17T07:28:46.125Z,5.28
2022-11-17T07:29:46.350Z,5.44
2022-11-17T07:30:46.413Z,5.44
2022-11-17T07:31:46.530Z,5.28
2022-11-17T07:32:50.670Z,5.28
2022-11-17T07:33:46.787Z,5.2
2022-11-17T07:34:46.895Z,5.2
2022-11-17T07:35:47.735Z,5.28
2022-11-17T07:36:47.155Z,5.44
2022-11-17T07:37:47.301Z,5.52
2022-11-17T07:38:47.454Z,5.6
2022-11-17T07:39:47.546Z,5.68
2022-11-17T07:40:47.716Z,5.52
2022-11-17T07:41:47.866Z,5.68
2022-11-17T07:42:47.985Z,5.6
2022-11-17T07:43:48.153Z,5.6
2022-11-17T07:44:48.275Z,5.52
2022-11-17T07:45:48.358Z,5.52
2022-11-17T07:46:48.478Z,5.6
2022-11-17T07:47:48.665Z,5.6
2022-11-17T07:48:48.841Z,5.52
2022-11-17T07:49:48.980Z,5.6
2022-11-17T07:50:49.145Z,5.6
2022-11-17T07:51:49.265Z,5.68
2022-11-17T07:52:49.438Z,5.68
2022-11-17T07:53:49.590Z,5.92
2022-11-17T07:54:49.744Z,5.84
2022-11-17T07:55:49.883Z,5.68
2022-11-17T07:56:50.042Z,5.68
2022-11-17T07:57:50.195Z,5.84
2022-11-17T07:58:50.355Z,5.68
2022-11-17T07:59:50.490Z,5.68
2022-11-17T08:00:50.709Z,5.84
2022-11-17T08:01:50.739Z,5.92
2022-11-17T08:02:50.901Z,5.92
2022-11-17T08:03:51.080Z,6.08
2022-11-17T08:04:51.188Z,6.24
2022-11-17T08:05:51.366Z,6.08
2022-11-17T08:06:51.502Z,6
2022-11-17T08:07:51.673Z,6
2022-11-17T08:08:51.828Z,6.08
2022-11-17T08:09:51.970Z,6.08
2022-11-17T08:10:52.114Z,6
2022-11-17T08:11:52.262Z,6
2022-11-17T08:12:52.417Z,6
2022-11-17T08:13:52.570Z,6
2022-11-17T08:14:52.621Z,6
2022-11-17T08:15:52.758Z,6.08
2022-11-17T08:16:52.949Z,6.08
2022-11-17T08:17:53.139Z,6.08
2022-11-17T08:18:53.297Z,6
2022-11-17T08:19:53.323Z,6
2022-11-17T08:20:53.491Z,6
2022-11-17T08:21:53.637Z,6
2022-11-17T08:22:53.785Z,6
2022-11-17T08:23:53.917Z,6
2022-11-17T08:24:54.088Z,6
2022-11-17T08:25:54.195Z,6.08
2022-11-17T08:26:54.323Z,6
2022-11-17T08:27:54.437Z,6
2022-11-17T08:28:58.320Z,6
2022-11-17T08:29:54.740Z,6.24
2022-11-17T08:30:54.876Z,6
2022-11-17T08:31:55.028Z,6
2022-11-17T08:32:55.191Z,6
2022-11-17T08:33:55.368Z,5.92
2022-11-17T08:34:55.489Z,5.84
2022-11-17T08:35:55.631Z,6
2022-11-17T08:36:55.756Z,6
2022-11-17T08:37:55.908Z,6
2022-11-17T08:38:56.048Z,5.92
2022-11-17T08:39:56.161Z,6.08
2022-11-17T08:40:56.312Z,6.24
2022-11-17T08:41:56.495Z,6
2022-11-17T08:43:00.841Z,6
2022-11-17T08:43:56.768Z,6
2022-11-17T08:44:56.900Z,6
2022-11-17T08:45:57.053Z,6
2022-11-17T08:46:57.216Z,6
2022-11-17T08:47:57.378Z,6
2022-11-17T08:48:57.531Z,6
2022-11-17T08:49:57.630Z,6.08
2022-11-17T08:50:57.769Z,6
2022-11-17T08:51:57.931Z,6
2022-11-17T08:52:58.078Z,6.24
2022-11-17T08:53:58.231Z,5.92
2022-11-17T08:54:58.393Z,6
2022-11-17T08:55:58.604Z,6
2022-11-17T08:56:58.725Z,5.92
2022-11-17T08:57:58.835Z,6
2022-11-17T08:58:58.966Z,5.92
2022-11-17T08:59:59.076Z,5.92
2022-11-17T09:01:03.936Z,6
2022-11-17T09:01:59.286Z,6
2022-11-17T09:02:59.431Z,6
2022-11-17T09:03:59.583Z,6
2022-11-17T09:04:59.682Z,6
2022-11-17T09:05:59.844Z,6
2022-11-17T09:07:00.000Z,6
2022-11-17T09:08:16.196Z,6
2022-11-17T09:09:00.656Z,6
2022-11-17T09:10:00.453Z,6
2022-11-17T09:11:00.609Z,5.92
2022-11-17T09:12:00.758Z,6
2022-11-17T09:13:00.905Z,6
2022-11-17T09:14:01.061Z,6
2022-11-17T09:15:01.215Z,5.92
2022-11-17T09:16:01.336Z,6
2022-11-17T09:17:01.470Z,6.08
2022-11-17T09:18:01.613Z,6
2022-11-17T09:19:01.719Z,5.92
2022-11-17T09:20:01.868Z,6
2022-11-17T09:21:01.980Z,6
2022-11-17T09:22:02.120Z,5.92
2022-11-17T09:23:02.233Z,6
2022-11-17T09:24:02.378Z,6
2022-11-17T09:25:02.546Z,6
2022-11-17T09:26:02.674Z,6
2022-11-17T09:27:02.835Z,6
2022-11-17T09:28:02.989Z,6
2022-11-17T09:29:03.137Z,6.08
2022-11-17T09:30:03.289Z,6
2022-11-17T09:31:03.484Z,6
2022-11-17T09:32:03.586Z,6
2022-11-17T09:33:03.746Z,6
2022-11-17T09:34:05.486Z,5.92
2022-11-17T09:35:04.052Z,5.92
2022-11-17T09:36:04.187Z,5.92
2022-11-17T09:37:04.281Z,6
2022-11-17T09:38:04.385Z,6
2022-11-17T09:39:04.486Z,5.84
2022-11-17T09:40:04.653Z,6
2022-11-17T09:41:04.799Z,5.92
2022-11-17T09:42:04.958Z,6
2022-11-17T09:43:05.105Z,5.92
2022-11-17T09:44:05.272Z,5.92
2022-11-17T09:45:05.411Z,5.84
2022-11-17T09:46:07.613Z,5.84
2022-11-17T09:47:05.714Z,5.92
2022-11-17T09:48:25.780Z,5.92
2022-11-17T09:49:06.018Z,6
2022-11-17T09:50:06.182Z,6
2022-11-17T09:51:06.267Z,6
2022-11-17T09:52:06.430Z,6
2022-11-17T09:53:06.530Z,6.08
2022-11-17T09:54:06.707Z,6
2022-11-17T09:55:06.828Z,6.08
2022-11-17T09:56:06.932Z,6
2022-11-17T09:57:07.078Z,6.08
2022-11-17T09:58:07.240Z,6
2022-11-17T09:59:07.383Z,6
2022-11-17T10:00:07.534Z,6
2022-11-17T10:01:07.669Z,6
2022-11-17T10:02:07.842Z,6
2022-11-17T10:03:07.895Z,6
2022-11-17T10:04:07.999Z,6
2022-11-17T10:05:08.143Z,6
2022-11-17T10:06:08.292Z,6
2022-11-17T10:07:08.412Z,6
2022-11-17T10:08:08.550Z,6.08
2022-11-17T10:09:08.717Z,6.08
2022-11-17T10:10:08.847Z,6.24
2022-11-17T10:11:09.000Z,6.08
2022-11-17T10:12:09.161Z,6
2022-11-17T10:13:09.326Z,6
2022-11-17T10:14:09.440Z,6.08
2022-11-17T10:15:09.610Z,6
2022-11-17T10:16:09.747Z,6.08
2022-11-17T10:17:09.915Z,6.08
2022-11-17T10:18:10.065Z,6.08
2022-11-17T10:19:10.214Z,6.08
2022-11-17T10:20:10.378Z,6
2022-11-17T10:21:10.469Z,6
2022-11-17T10:22:10.619Z,6
2022-11-17T10:23:10.771Z,6
2022-11-17T10:24:10.934Z,6.24
2022-11-17T10:25:11.077Z,6.24
2022-11-17T10:26:11.222Z,6.24
2022-11-17T10:27:11.381Z,6.32
2022-11-17T10:28:11.532Z,6.08
2022-11-17T10:29:11.680Z,6.08
2022-11-17T10:30:11.829Z,6.08
2022-11-17T10:31:11.921Z,6
2022-11-17T10:32:12.082Z,6
2022-11-17T10:33:12.189Z,5.92
2022-11-17T10:34:12.295Z,5.92
2022-11-17T10:35:12.442Z,5.92
2022-11-17T10:36:12.586Z,5.84
2022-11-17T10:37:12.743Z,5.92
2022-11-17T10:38:12.893Z,5.92
2022-11-17T10:39:17.669Z,5.92
2022-11-17T10:40:13.205Z,5.84
2022-11-17T10:41:13.354Z,5.92
2022-11-17T10:42:13.459Z,5.84
2022-11-17T10:43:13.611Z,5.84
2022-11-17T10:44:13.763Z,5.84
2022-11-17T10:45:13.909Z,5.92
2022-11-17T10:46:13.992Z,5.92
2022-11-17T10:47:14.097Z,5.84
2022-11-17T10:48:14.265Z,5.84
2022-11-17T10:49:14.435Z,5.6
2022-11-17T10:50:14.560Z,5.6
2022-11-17T10:51:14.682Z,5.6
2022-11-17T10:52:14.821Z,5.6
2022-11-17T10:53:14.967Z,5.6
2022-11-17T10:54:15.117Z,5.6
2022-11-17T10:55:15.259Z,5.52
2022-11-17T10:56:15.430Z,5.52
2022-11-17T10:57:15.578Z,5.6
2022-11-17T10:58:15.725Z,5.6
2022-11-17T10:59:15.885Z,5.6
2022-11-17T11:00:16.034Z,5.6
2022-11-17T11:01:16.211Z,5.6
2022-11-17T11:02:16.334Z,5.84
2022-11-17T11:03:16.483Z,5.68
2022-11-17T11:04:16.640Z,5.68
2022-11-17T11:05:16.791Z,5.68
2022-11-17T11:06:17.625Z,5.68
2022-11-17T11:07:17.157Z,5.68
2022-11-17T11:08:17.238Z,5.6
2022-11-17T11:09:17.398Z,5.6
2022-11-17T11:10:17.551Z,5.6
2022-11-17T11:11:17.695Z,5.6
2022-11-17T11:12:17.840Z,5.6
2022-11-17T11:13:18.004Z,5.68
2022-11-17T11:14:18.160Z,5.68
2022-11-17T11:15:18.318Z,5.68
2022-11-17T11:16:18.445Z,5.92
2022-11-17T11:17:18.619Z,5.84
2022-11-17T11:18:18.754Z,5.84
2022-11-17T11:19:18.911Z,5.84
2022-11-17T11:20:19.072Z,5.68
2022-11-17T11:21:19.195Z,5.68
2022-11-17T11:22:21.320Z,5.68
2022-11-17T11:23:19.466Z,6
2022-11-17T11:24:19.621Z,6.24
2022-11-17T11:25:19.774Z,6.24
2022-11-17T11:26:19.945Z,6.4
2022-11-17T11:27:20.022Z,6.32
2022-11-17T11:28:20.174Z,6.4
2022-11-17T11:29:20.334Z,6.4
2022-11-17T11:30:20.492Z,6.48
2022-11-17T11:31:20.616Z,6.4
2022-11-17T11:32:20.782Z,6.32
2022-11-17T11:33:20.926Z,6.32
2022-11-17T11:34:21.082Z,6.24
2022-11-17T11:35:21.238Z,6.32
2022-11-17T11:36:21.403Z,6.32
2022-11-17T11:37:21.484Z,6.32
2022-11-17T11:38:21.640Z,6.24
2022-11-17T11:39:21.790Z,6.24
2022-11-17T11:40:21.953Z,6.24
2022-11-17T11:41:22.087Z,6.32
2022-11-17T11:42:22.241Z,6.24
2022-11-17T11:43:22.398Z,6.24
2022-11-17T11:44:22.507Z,6.24
2022-11-17T11:45:22.672Z,6.24
2022-11-17T11:46:22.743Z,6.24
2022-11-17T11:47:22.909Z,6.24
2022-11-17T11:48:23.055Z,6.24
2022-11-17T11:49:23.162Z,6.08
2022-11-17T11:50:23.311Z,6.24
2022-11-17T11:51:23.469Z,6.24
2022-11-17T11:52:23.583Z,6.32
2022-11-17T11:53:23.700Z,6.08
2022-11-17T11:54:23.870Z,6.08
2022-11-17T11:55:23.979Z,6.08
2022-11-17T11:56:24.126Z,6.08
2022-11-17T11:57:24.264Z,5.92
2022-11-17T11:58:24.427Z,6.08
2022-11-17T11:59:24.569Z,6.32
2022-11-17T12:00:24.688Z,6.48
2022-11-17T12:01:24.818Z,6.48
2022-11-17T12:02:24.957Z,6.72
2022-11-17T12:03:25.107Z,6.72
2022-11-17T12:04:25.237Z,6.8
2022-11-17T12:05:25.390Z,6.8
2022-11-17T12:06:25.540Z,6.72
2022-11-17T12:07:25.784Z,6.8
2022-11-17T12:08:25.834Z,6.8
2022-11-17T12:09:25.987Z,6.8
2022-11-17T12:10:26.154Z,6.72
2022-11-17T12:11:26.291Z,6.8
2022-11-17T12:12:26.441Z,6.88
2022-11-17T12:13:26.590Z,7.12
2022-11-17T12:14:26.757Z,7.12
2022-11-17T12:15:26.896Z,7.12
2022-11-17T12:16:27.033Z,7.2
2022-11-17T12:17:27.193Z,7.2
2022-11-17T12:18:27.407Z,7.2
2022-11-17T12:19:27.511Z,7.2
2022-11-17T12:20:27.667Z,7.2
2022-11-17T12:21:27.808Z,7.2
2022-11-17T12:22:27.914Z,7.2
2022-11-17T12:23:28.070Z,7.2
2022-11-17T12:24:28.211Z,7.2
2022-11-17T12:25:28.358Z,7.12
2022-11-17T12:26:28.521Z,7.2
2022-11-17T12:27:28.674Z,7.2
2022-11-17T12:28:28.820Z,7.2
2022-11-17T12:29:28.923Z,7.2
2022-11-17T12:30:29.077Z,7.2
2022-11-17T12:31:29.208Z,6.88
2022-11-17T12:32:29.368Z,6.88
2022-11-17T12:33:29.524Z,7.04
2022-11-17T12:34:29.629Z,7.12
2022-11-17T12:35:29.784Z,7.2
2022-11-17T12:36:30.765Z,7.2
2022-11-17T12:37:30.096Z,7.12
2022-11-17T12:38:30.232Z,7.2
2022-11-17T12:39:30.368Z,7.2
2022-11-17T12:40:30.982Z,7.2
2022-11-17T12:41:30.594Z,7.2
2022-11-17T12:42:30.749Z,7.12
2022-11-17T12:43:30.860Z,7.12
2022-11-17T12:44:30.990Z,7.12
2022-11-17T12:45:31.145Z,7.12
2022-11-17T12:46:31.238Z,7.04
2022-11-17T12:47:31.334Z,7.04
2022-11-17T12:48:33.769Z,6.88
2022-11-17T12:49:31.651Z,7.04
2022-11-17T12:50:31.756Z,7.04
2022-11-17T12:51:31.862Z,7.04
2022-11-17T12:52:32.010Z,7.04
2022-11-17T12:53:32.162Z,7.04
2022-11-17T12:54:32.303Z,7.04
2022-11-17T12:55:32.455Z,6.88
2022-11-17T12:56:32.588Z,6.88
2022-11-17T12:57:32.716Z,7.04
2022-11-17T12:58:32.866Z,7.04
2022-11-17T12:59:32.996Z,7.04
2022-11-17T13:00:33.107Z,6.88
2022-11-17T13:01:33.316Z,6.88
2022-11-17T13:02:33.429Z,7.04
2022-11-17T13:03:33.580Z,7.04
2022-11-17T13:04:33.675Z,6.88
2022-11-17T13:05:33.828Z,6.88
2022-11-17T13:06:35.747Z,6.88
2022-11-17T13:07:34.164Z,6.88
2022-11-17T13:08:34.284Z,6.88
2022-11-17T13:09:34.437Z,6.8
2022-11-17T13:10:34.584Z,6.88
2022-11-17T13:11:34.768Z,6.8
2022-11-17T13:12:34.893Z,6.72
2022-11-17T13:13:37.096Z,6.8
2022-11-17T13:14:35.148Z,6.8
2022-11-17T13:15:35.228Z,6.8
2022-11-17T13:16:35.401Z,6.72
2022-11-17T13:17:35.549Z,6.72
2022-11-17T13:18:35.704Z,6.72
2022-11-17T13:19:35.850Z,6.72
2022-11-17T13:20:35.994Z,6.72
2022-11-17T13:21:36.113Z,6.72
2022-11-17T13:22:40.603Z,6.72
2022-11-17T13:23:36.410Z,6.64
2022-11-17T13:24:36.562Z,6.64
2022-11-17T13:25:36.708Z,6.48
2022-11-17T13:26:36.871Z,6.48
2022-11-17T13:27:37.016Z,6.48
2022-11-17T13:28:37.135Z,6.48
2022-11-17T13:29:37.274Z,6.4
2022-11-17T13:30:37.402Z,6.4
2022-11-17T13:31:37.553Z,6.4
2022-11-17T13:32:37.677Z,6.32
2022-11-17T13:33:40.357Z,6.32
2022-11-17T13:34:37.984Z,6.24
2022-11-17T13:35:38.126Z,6.32